Time;durP1;ratioP1;P1;durP2;ratioP2;P2;SDS_P1;SDS_P2;PMS_P1;PMS_P2;Temp;Humidity;BMP_temperature;BMP_pressure;BME280_temperature;BME280_humidity;BME280_pressure;Samples;Min_cycle;Max_cycle;Signal;HPM_P1;HPM_P2
2021/06/07 00:00:21;;;;;;;11.27;7.68;;;;;;;15.99;76.87;102071.31;5042135;28;20040;-70
2021/06/07 00:02:47;;;;;;;12.88;7.80;;;;;;;15.99;77.02;102068.69;5023960;28;20048;-71
2021/06/07 00:05:13;;;;;;;14.25;7.93;;;;;;;16.00;77.10;102069.53;5026443;28;20033;-70
2021/06/07 00:07:39;;;;;;;8.80;7.18;;;;;;;15.99;77.11;102063.44;5025744;28;20074;-70
2021/06/07 00:10:11;;;;;;;14.55;8.48;;;;;;;16.00;76.92;102070.34;5025452;28;20080;-71
2021/06/07 00:12:37;;;;;;;10.27;7.15;;;;;;;16.03;76.96;102072.63;5025367;28;20044;-71
2021/06/07 00:15:10;;;;;;;10.52;7.38;;;;;;;16.03;76.78;102070.03;5026936;28;20037;-70
2021/06/07 00:17:36;;;;;;;14.70;8.48;;;;;;;15.99;76.69;102066.06;5026444;28;20044;-70
2021/06/07 00:20:09;;;;;;;12.75;8.10;;;;;;;15.95;77.15;102072.59;5027222;28;20119;-70
2021/06/07 00:22:35;;;;;;;11.68;7.03;;;;;;;15.91;77.14;102066.06;5024859;28;20144;-70
2021/06/07 00:25:03;;;;;;;10.23;7.90;;;;;;;15.89;77.24;102062.78;5024381;28;20033;-70
2021/06/07 00:27:29;;;;;;;11.52;7.90;;;;;;;15.88;77.14;102066.38;5023810;28;20037;-70
2021/06/07 00:29:54;;;;;;;11.35;7.50;;;;;;;15.82;77.26;102057.38;5027159;28;20030;-71
2021/06/07 00:32:20;;;;;;;13.70;8.65;;;;;;;15.80;77.25;102063.75;5019581;28;20041;-71
2021/06/07 00:34:45;;;;;;;12.52;8.20;;;;;;;15.79;77.52;102062.13;5025908;28;20090;-70
2021/06/07 00:37:10;;;;;;;10.27;7.70;;;;;;;15.77;77.28;102060.47;5026595;28;20124;-70
2021/06/07 00:39:36;;;;;;;14.52;8.05;;;;;;;15.74;77.18;102059.97;5038949;28;20047;-70
2021/06/07 00:42:02;;;;;;;18.00;8.05;;;;;;;15.72;77.19;102064.53;5042192;28;20033;-70
2021/06/07 00:44:27;;;;;;;15.95;8.77;;;;;;;15.67;77.27;102058.94;5040643;28;20068;-70
2021/06/07 00:46:53;;;;;;;14.18;10.60;;;;;;;15.62;77.06;102062.03;5024720;28;20480;-71
2021/06/07 00:49:18;;;;;;;13.02;8.68;;;;;;;15.54;77.59;102062.84;5022198;28;20033;-71
2021/06/07 00:51:45;;;;;;;11.63;7.55;;;;;;;15.52;77.67;102066.56;5025852;28;20045;-70
2021/06/07 00:54:11;;;;;;;11.73;8.45;;;;;;;15.50;77.62;102064.13;5041106;28;20033;-70
2021/06/07 00:56:37;;;;;;;13.13;8.70;;;;;;;15.46;77.78;102061.97;5024920;28;20604;-70
2021/06/07 00:59:03;;;;;;;11.80;8.05;;;;;;;15.44;77.91;102058.69;5023240;28;20560;-70
2021/06/07 01:01:29;;;;;;;13.15;7.97;;;;;;;15.38;77.72;102060.16;5025272;28;20037;-71
2021/06/07 01:03:57;;;;;;;11.23;8.60;;;;;;;15.34;77.68;102057.03;5024297;28;20120;-70
2021/06/07 01:06:23;;;;;;;9.40;7.25;;;;;;;15.32;77.54;102066.81;5025551;28;20048;-70
2021/06/07 01:08:49;;;;;;;13.38;8.07;;;;;;;15.28;77.46;102067.31;5023747;28;20038;-71
2021/06/07 01:11:17;;;;;;;13.25;8.18;;;;;;;15.24;77.60;102058.97;5025020;28;20033;-71
2021/06/07 01:13:43;;;;;;;10.43;8.00;;;;;;;15.21;77.66;102054.03;5024131;28;20561;-71
2021/06/07 01:16:10;;;;;;;15.13;9.38;;;;;;;15.19;77.54;102071.66;5023660;28;20022;-70
2021/06/07 01:18:36;;;;;;;12.88;8.85;;;;;;;15.16;77.60;102061.50;5024913;28;20044;-70
2021/06/07 01:21:07;;;;;;;10.77;8.30;;;;;;;15.13;77.48;102064.44;5025457;28;20045;-70
2021/06/07 01:23:33;;;;;;;12.20;7.55;;;;;;;15.12;77.46;102066.22;5024195;28;20037;-70
2021/06/07 01:26:03;;;;;;;11.00;8.25;;;;;;;15.09;77.44;102071.78;5022784;28;20083;-70
2021/06/07 01:28:29;;;;;;;12.02;7.75;;;;;;;15.03;77.60;102064.56;5024193;28;20496;-70
2021/06/07 01:30:56;;;;;;;11.10;7.53;;;;;;;14.99;77.66;102069.28;5039113;28;20044;-70
2021/06/07 01:33:23;;;;;;;12.15;8.52;;;;;;;14.96;77.73;102074.00;5024028;28;20159;-70
2021/06/07 01:35:53;;;;;;;13.25;9.15;;;;;;;14.90;78.04;102072.81;5024356;28;20052;-70
2021/06/07 01:38:19;;;;;;;13.48;9.02;;;;;;;14.83;78.55;102070.97;5023476;28;20109;-70
2021/06/07 01:40:48;;;;;;;11.45;7.97;;;;;;;14.76;79.11;102073.34;5022181;28;20152;-70
2021/06/07 01:43:14;;;;;;;15.30;9.38;;;;;;;14.71;79.79;102076.44;5039567;28;20466;-70
2021/06/07 01:45:42;;;;;;;12.48;9.00;;;;;;;14.69;79.68;102074.94;5025374;28;20040;-70
2021/06/07 01:48:09;;;;;;;11.85;8.48;;;;;;;14.64;80.03;102074.59;5038845;28;20036;-70
2021/06/07 01:50:35;;;;;;;19.27;9.93;;;;;;;14.60;80.43;102069.66;5025030;28;20045;-70
2021/06/07 01:53:03;;;;;;;14.90;9.43;;;;;;;14.61;80.69;102073.09;5023063;28;20025;-71
2021/06/07 01:55:40;;;;;;;15.80;9.95;;;;;;;14.62;80.71;102072.13;5025492;28;20033;-70
2021/06/07 01:58:07;;;;;;;13.77;9.68;;;;;;;14.64;80.60;102078.00;5022817;28;20326;-71
2021/06/07 02:00:46;;;;;;;12.70;9.40;;;;;;;14.65;80.46;102071.00;5024811;28;20545;-70
2021/06/07 02:03:15;;;;;;;13.82;10.20;;;;;;;14.67;80.55;102076.88;5014966;28;21316;-70
2021/06/07 02:05:42;;;;;;;14.05;10.52;;;;;;;14.68;80.51;102075.91;5025140;28;20113;-70
2021/06/07 02:08:11;;;;;;;16.50;11.05;;;;;;;14.69;80.48;102080.16;5023270;28;20429;-70
2021/06/07 02:10:40;;;;;;;14.70;11.52;;;;;;;14.67;80.71;102067.25;5039451;28;20112;-70
2021/06/07 02:13:08;;;;;;;15.95;12.05;;;;;;;14.67;80.89;102066.44;5022989;28;20083;-70
2021/06/07 02:15:33;;;;;;;17.60;11.95;;;;;;;14.65;80.98;102084.03;5023569;28;20040;-71
2021/06/07 02:18:10;;;;;;;17.85;12.35;;;;;;;14.69;81.03;102072.31;5023470;28;20029;-70
2021/06/07 02:20:37;;;;;;;23.63;11.48;;;;;;;14.67;81.25;102071.66;5024743;28;20069;-70
2021/06/07 02:23:03;;;;;;;19.15;11.70;;;;;;;14.67;81.37;102069.84;5024063;28;20055;-70
2021/06/07 02:25:28;;;;;;;17.77;13.40;;;;;;;14.69;81.49;102067.09;5039702;28;20045;-70
2021/06/07 02:27:54;;;;;;;18.13;12.63;;;;;;;14.70;81.08;102074.78;5023163;28;20236;-70
2021/06/07 02:30:23;;;;;;;17.85;12.82;;;;;;;14.68;81.25;102071.50;5025293;28;20033;-70
2021/06/07 02:32:50;;;;;;;21.05;13.23;;;;;;;14.68;81.14;102074.13;5023414;28;20407;-70
2021/06/07 02:35:17;;;;;;;21.77;13.60;;;;;;;14.66;81.23;102070.84;5025075;28;20033;-70
2021/06/07 02:37:44;;;;;;;20.63;13.10;;;;;;;14.64;81.31;102069.38;5022772;28;20030;-70
2021/06/07 02:40:12;;;;;;;17.63;12.38;;;;;;;14.62;81.33;102068.66;5023526;28;20037;-70
2021/06/07 02:42:39;;;;;;;23.38;14.57;;;;;;;14.61;81.05;102065.25;5037442;28;20042;-70
2021/06/07 02:45:07;;;;;;;21.90;13.77;;;;;;;14.56;81.12;102065.69;5024627;28;20669;-70
2021/06/07 02:47:33;;;;;;;17.08;11.90;;;;;;;14.53;81.30;102075.59;5023476;28;20049;-70
2021/06/07 02:49:58;;;;;;;17.52;11.75;;;;;;;14.49;81.48;102062.03;5023834;28;20052;-70
2021/06/07 02:52:24;;;;;;;18.42;12.05;;;;;;;14.48;81.34;102059.56;5023022;28;20053;-70
2021/06/07 02:54:50;;;;;;;18.30;12.45;;;;;;;14.49;81.25;102066.44;5024928;28;20689;-71
2021/06/07 02:57:15;;;;;;;19.38;12.43;;;;;;;14.47;81.13;102063.97;5022942;28;20033;-71
2021/06/07 02:59:41;;;;;;;16.25;11.95;;;;;;;14.46;81.13;102069.34;5022968;28;20087;-70
2021/06/07 03:02:06;;;;;;;21.52;12.45;;;;;;;14.45;80.88;102065.94;5024975;28;20491;-70
2021/06/07 03:04:32;;;;;;;18.08;11.20;;;;;;;14.41;80.77;102067.19;5023305;28;20030;-70
2021/06/07 03:06:57;;;;;;;16.40;11.50;;;;;;;14.41;80.87;102067.19;5023444;28;20034;-70
2021/06/07 03:09:23;;;;;;;16.23;11.30;;;;;;;14.41;80.34;102065.41;5036817;28;20041;-70
2021/06/07 03:11:48;;;;;;;17.10;10.90;;;;;;;14.35;80.17;102070.38;5023118;28;20033;-70
2021/06/07 03:14:14;;;;;;;18.10;10.55;;;;;;;14.31;80.43;102074.28;5023322;28;20049;-70
2021/06/07 03:16:39;;;;;;;14.93;11.25;;;;;;;14.26;80.39;102074.72;5023969;28;20042;-70
2021/06/07 03:19:05;;;;;;;19.10;11.80;;;;;;;14.20;80.68;102070.94;5023891;28;20069;-70
2021/06/07 03:21:31;;;;;;;16.83;10.70;;;;;;;14.18;80.72;102072.03;5023210;28;20072;-70
2021/06/07 03:23:57;;;;;;;18.15;11.35;;;;;;;14.17;80.50;102073.81;5025781;28;20041;-70
2021/06/07 03:26:22;;;;;;;19.23;10.23;;;;;;;14.17;80.31;102071.22;5025547;28;20041;-70
2021/06/07 03:28:47;;;;;;;17.65;12.27;;;;;;;14.17;80.16;102075.63;5027058;28;20037;-70
2021/06/07 03:31:13;;;;;;;20.17;11.60;;;;;;;14.14;79.95;102073.31;5028464;28;20619;-70
2021/06/07 03:33:38;;;;;;;14.00;10.55;;;;;;;14.09;80.28;102076.38;5043199;28;20077;-70
2021/06/07 03:36:07;;;;;;;14.95;10.88;;;;;;;14.06;80.35;102074.03;5024582;28;20037;-70
2021/06/07 03:38:33;;;;;;;17.35;12.20;;;;;;;14.01;80.52;102069.28;5042321;28;20091;-70
2021/06/07 03:40:59;;;;;;;23.00;14.52;;;;;;;13.96;80.75;102073.31;5028393;28;20036;-70
2021/06/07 03:43:34;;;;;;;19.67;12.43;;;;;;;13.92;81.04;102070.16;5026498;28;20029;-70
2021/06/07 03:46:00;;;;;;;21.65;12.93;;;;;;;13.87;81.47;102079.41;5027575;28;20033;-70
2021/06/07 03:48:26;;;;;;;22.33;13.63;;;;;;;13.83;81.80;102079.69;5024701;28;20306;-70
2021/06/07 03:50:51;;;;;;;17.08;12.85;;;;;;;13.80;81.86;102077.34;5027500;28;20041;-70
2021/06/07 03:53:17;;;;;;;31.33;14.35;;;;;;;13.78;82.00;102081.88;5025541;28;20120;-70
2021/06/07 03:55:44;;;;;;;19.15;11.25;;;;;;;13.75;82.24;102073.53;5025492;28;20037;-70
2021/06/07 03:58:10;;;;;;;19.27;13.07;;;;;;;13.75;82.22;102081.34;5025600;28;20041;-70
2021/06/07 04:00:38;;;;;;;20.38;13.55;;;;;;;13.70;82.25;102081.81;5024617;28;20470;-70
2021/06/07 04:03:06;;;;;;;17.73;13.73;;;;;;;13.70;82.29;102094.84;5024359;28;20037;-70
2021/06/07 04:05:34;;;;;;;18.83;13.98;;;;;;;13.67;82.44;102087.31;5027466;28;20409;-70
2021/06/07 04:08:00;;;;;;;21.20;12.85;;;;;;;13.70;82.47;102091.41;5024915;28;20033;-70
2021/06/07 04:10:27;;;;;;;22.85;13.82;;;;;;;13.66;82.43;102085.69;5026219;28;20045;-70
2021/06/07 04:12:53;;;;;;;21.55;15.00;;;;;;;13.67;82.31;102086.50;5024701;28;20041;-70
2021/06/07 04:15:22;;;;;;;21.25;14.48;;;;;;;13.66;82.39;102090.88;5026684;28;20026;-70
2021/06/07 04:17:48;;;;;;;19.83;13.05;;;;;;;13.63;82.48;102081.56;5024744;28;20072;-70
2021/06/07 04:20:16;;;;;;;22.45;14.20;;;;;;;13.64;82.65;102092.81;5027542;28;20041;-70
2021/06/07 04:22:43;;;;;;;22.52;13.38;;;;;;;13.61;82.70;102096.53;5024170;28;20038;-70
2021/06/07 04:25:10;;;;;;;16.08;12.20;;;;;;;13.60;82.83;102086.25;5026739;28;20037;-70
2021/06/07 04:27:35;;;;;;;18.73;13.05;;;;;;;13.60;82.93;102089.69;5025051;28;20041;-70
2021/06/07 04:30:05;;;;;;;18.77;13.43;;;;;;;13.64;82.97;102087.63;5024833;28;20021;-70
2021/06/07 04:32:32;;;;;;;21.92;14.45;;;;;;;13.70;82.75;102081.00;5042080;28;20041;-70
2021/06/07 04:35:00;;;;;;;19.30;13.82;;;;;;;13.75;82.70;102084.81;5025173;28;20033;-70
2021/06/07 04:37:25;;;;;;;22.05;14.25;;;;;;;13.79;82.73;102083.53;5024803;28;20090;-70
2021/06/07 04:39:51;;;;;;;21.92;12.70;;;;;;;13.82;82.56;102080.66;5024856;28;20128;-70
2021/06/07 04:42:16;;;;;;;20.08;13.05;;;;;;;13.82;82.69;102080.66;5025457;28;20025;-70
2021/06/07 04:44:41;;;;;;;23.95;15.45;;;;;;;13.89;83.04;102080.88;5024023;28;20061;-71
2021/06/07 04:47:07;;;;;;;20.52;14.63;;;;;;;13.94;82.89;102091.69;5025563;28;20558;-70
2021/06/07 04:49:32;;;;;;;21.75;14.00;;;;;;;14.05;82.33;102082.00;5024740;28;20057;-70
2021/06/07 04:51:58;;;;;;;21.95;14.40;;;;;;;14.05;82.52;102085.44;5025561;28;20421;-70
2021/06/07 04:54:23;;;;;;;24.92;14.75;;;;;;;14.10;82.79;102085.81;5026202;28;20083;-70
2021/06/07 04:56:48;;;;;;;25.23;14.80;;;;;;;14.11;82.69;102086.63;5024052;28;20048;-71
2021/06/07 04:59:14;;;;;;;29.10;14.80;;;;;;;14.11;82.70;102090.06;5040638;28;20634;-70
2021/06/07 05:01:39;;;;;;;20.90;14.27;;;;;;;14.11;83.24;102087.47;5026233;28;20052;-70
2021/06/07 05:04:05;;;;;;;23.23;15.02;;;;;;;14.19;83.04;102086.72;5025449;28;20044;-70
2021/06/07 05:06:30;;;;;;;22.42;15.98;;;;;;;14.23;82.64;102089.88;5022656;28;20037;-70
2021/06/07 05:08:55;;;;;;;22.75;14.77;;;;;;;14.20;82.83;102086.59;5022999;28;20065;-70
2021/06/07 05:11:21;;;;;;;31.27;15.65;;;;;;;14.17;82.83;102094.69;5025332;28;20521;-70
2021/06/07 05:13:46;;;;;;;23.33;15.65;;;;;;;14.26;82.37;102092.16;5025326;28;20042;-70
2021/06/07 05:16:12;;;;;;;22.02;14.35;;;;;;;14.23;82.81;102088.06;5024618;28;20059;-70
2021/06/07 05:18:37;;;;;;;19.58;14.40;;;;;;;14.25;82.71;102086.13;5024605;28;20397;-70
2021/06/07 05:21:04;;;;;;;20.60;15.00;;;;;;;14.20;82.93;102093.56;5024647;28;20071;-70
2021/06/07 05:23:29;;;;;;;21.88;14.57;;;;;;;14.25;82.34;102088.72;5024522;28;20065;-70
2021/06/07 05:25:55;;;;;;;23.13;15.35;;;;;;;14.25;82.12;102093.13;5024404;28;20537;-70
2021/06/07 05:28:20;;;;;;;24.02;14.80;;;;;;;14.32;82.02;102088.97;5025694;28;20171;-70
2021/06/07 05:30:47;;;;;;;24.45;13.70;;;;;;;14.30;81.95;102088.31;5026293;28;20414;-70
2021/06/07 05:33:13;;;;;;;19.73;14.77;;;;;;;14.32;81.80;102096.78;5039473;28;20482;-71
2021/06/07 05:35:42;;;;;;;23.95;15.45;;;;;;;14.38;81.52;102097.00;5023617;28;20044;-70
2021/06/07 05:38:09;;;;;;;20.35;13.32;;;;;;;14.38;81.27;102091.78;5023951;28;20411;-70
2021/06/07 05:40:35;;;;;;;20.52;14.95;;;;;;;14.44;81.60;102092.16;5023821;28;20037;-70
2021/06/07 05:43:01;;;;;;;24.40;15.27;;;;;;;14.55;81.38;102095.34;5024479;28;20061;-70
2021/06/07 05:45:27;;;;;;;21.90;15.13;;;;;;;14.62;81.17;102089.56;5025058;28;20141;-70
2021/06/07 05:47:56;;;;;;;20.63;14.18;;;;;;;14.66;80.90;102096.13;5020308;28;20098;-70
2021/06/07 05:50:22;;;;;;;21.95;14.90;;;;;;;14.79;79.84;102093.94;5039909;28;20044;-70
2021/06/07 05:52:49;;;;;;;23.92;14.90;;;;;;;14.86;79.89;102097.59;5041345;28;20029;-70
2021/06/07 05:55:26;;;;;;;25.90;16.08;;;;;;;14.92;79.41;102096.97;5025020;28;20040;-70
2021/06/07 05:57:56;;;;;;;21.67;14.40;;;;;;;14.92;79.35;102104.81;5023937;28;20422;-70
2021/06/07 06:00:24;;;;;;;28.15;16.00;;;;;;;15.02;78.93;102098.66;5024987;28;20045;-70
2021/06/07 06:02:50;;;;;;;23.05;14.63;;;;;;;15.11;79.15;102098.56;5023625;28;20037;-70
2021/06/07 06:05:16;;;;;;;25.35;15.07;;;;;;;15.28;78.68;102094.25;5025118;28;20025;-70
2021/06/07 06:07:43;;;;;;;26.88;15.63;;;;;;;15.34;77.87;102096.22;5022781;28;20128;-70
2021/06/07 06:10:10;;;;;;;23.13;14.13;;;;;;;15.38;77.58;102087.09;5040018;28;20463;-70
2021/06/07 06:12:35;;;;;;;22.80;14.05;;;;;;;15.45;77.86;102099.56;5023520;28;20167;-70
2021/06/07 06:15:01;;;;;;;22.85;12.85;;;;;;;15.46;78.15;102096.75;5023628;28;20052;-70
2021/06/07 06:17:27;;;;;;;25.75;16.05;;;;;;;15.62;76.48;102096.03;5024097;28;20048;-70
2021/06/07 06:19:52;;;;;;;20.67;13.13;;;;;;;15.66;76.33;102104.38;5024536;28;20065;-71
2021/06/07 06:22:18;;;;;;;23.80;14.52;;;;;;;15.72;76.25;102103.75;5024793;28;20071;-70
2021/06/07 06:24:45;;;;;;;24.73;15.40;;;;;;;15.64;75.95;102099.31;5024037;28;20048;-70
2021/06/07 06:27:12;;;;;;;24.23;15.38;;;;;;;15.64;75.96;102109.75;5025590;28;20120;-70
2021/06/07 06:29:37;;;;;;;26.55;16.20;;;;;;;15.79;76.03;102103.97;5039443;28;20682;-70
2021/06/07 06:32:04;;;;;;;22.75;14.95;;;;;;;15.68;75.65;102108.47;5023074;28;20095;-70
2021/06/07 06:34:30;;;;;;;23.17;14.68;;;;;;;15.62;75.39;102101.25;5038201;28;20109;-70
2021/06/07 06:36:55;;;;;;;25.02;14.27;;;;;;;15.72;75.61;102109.78;5024990;28;20137;-70
2021/06/07 06:39:21;;;;;;;22.30;14.70;;;;;;;15.67;75.10;102101.63;5022338;28;20041;-71
2021/06/07 06:41:46;;;;;;;18.13;11.65;;;;;;;15.74;75.23;102102.63;5023560;28;20033;-71
2021/06/07 06:44:12;;;;;;;23.17;14.30;;;;;;;15.80;75.75;102102.97;5036650;28;20555;-70
2021/06/07 06:46:37;;;;;;;22.42;14.40;;;;;;;15.86;74.44;102107.56;5039948;28;20041;-70
2021/06/07 06:49:03;;;;;;;18.90;12.38;;;;;;;15.97;73.95;102112.50;5023982;28;20413;-70
2021/06/07 06:51:29;;;;;;;20.55;13.10;;;;;;;15.98;73.03;102110.72;5025161;28;20037;-70
2021/06/07 06:53:54;;;;;;;25.35;14.27;;;;;;;15.94;73.39;102100.56;5023480;28;20494;-70
2021/06/07 06:56:20;;;;;;;24.65;14.65;;;;;;;15.98;72.90;102114.16;5040923;28;20033;-70
2021/06/07 06:58:45;;;;;;;24.58;14.55;;;;;;;16.02;72.43;102112.03;5025796;28;20114;-70
2021/06/07 07:01:13;;;;;;;29.50;14.52;;;;;;;16.02;73.58;102112.84;5024795;28;20056;-70
2021/06/07 07:03:39;;;;;;;26.08;14.73;;;;;;;16.21;72.33;102114.34;5026680;28;20137;-71
2021/06/07 07:06:05;;;;;;;41.03;24.48;;;;;;;16.25;73.02;102118.28;5027167;28;20150;-71
2021/06/07 07:08:30;;;;;;;21.52;13.48;;;;;;;16.36;71.85;102117.16;5026520;28;20049;-70
2021/06/07 07:10:56;;;;;;;23.73;14.93;;;;;;;16.45;72.58;102120.59;5023148;28;20116;-71
2021/06/07 07:13:22;;;;;;;21.92;13.90;;;;;;;16.52;71.77;102122.41;5044020;28;20292;-70
2021/06/07 07:15:47;;;;;;;26.10;14.95;;;;;;;16.70;70.84;102113.56;5025725;28;20013;-71
2021/06/07 07:18:13;;;;;;;22.45;13.30;;;;;;;16.80;70.71;102122.09;5024355;28;20376;-71
2021/06/07 07:20:39;;;;;;;24.60;13.20;;;;;;;16.73;70.62;102121.91;5028996;28;20506;-71
2021/06/07 07:23:06;;;;;;;21.13;13.27;;;;;;;16.67;71.02;102119.97;5026127;28;20609;-71
2021/06/07 07:25:32;;;;;;;24.10;14.85;;;;;;;16.58;70.93;102122.75;5042930;28;20037;-70
2021/06/07 07:27:58;;;;;;;20.75;13.57;;;;;;;16.65;70.09;102121.09;5023210;28;20044;-71
2021/06/07 07:30:27;;;;;;;22.08;14.57;;;;;;;16.70;71.17;102119.59;5024437;28;20041;-71
2021/06/07 07:32:54;;;;;;;23.45;14.27;;;;;;;16.76;71.30;102112.09;5024398;28;20506;-70
2021/06/07 07:35:21;;;;;;;23.05;14.77;;;;;;;17.02;70.01;102123.22;5027833;28;20112;-71
2021/06/07 07:37:46;;;;;;;29.30;18.35;;;;;;;17.10;68.10;102117.13;5039742;28;20096;-71
2021/06/07 07:40:15;;;;;;;27.40;15.23;;;;;;;17.10;68.60;102125.84;5028262;28;20025;-71
2021/06/07 07:42:41;;;;;;;30.17;16.08;;;;;;;17.16;68.90;102121.72;5041385;28;20516;-71
2021/06/07 07:45:09;;;;;;;30.33;17.60;;;;;;;17.18;68.10;102118.91;5027733;28;20120;-71
2021/06/07 07:47:35;;;;;;;24.52;15.52;;;;;;;17.42;68.48;102118.88;5026092;28;20156;-71
2021/06/07 07:50:00;;;;;;;33.17;18.60;;;;;;;17.46;68.31;102120.16;5026398;28;20745;-71
2021/06/07 07:52:26;;;;;;;43.95;24.00;;;;;;;17.52;69.45;102118.66;5026428;28;20045;-71
2021/06/07 07:54:53;;;;;;;60.55;29.33;;;;;;;17.50;68.05;102118.03;5044251;28;20036;-71
2021/06/07 07:57:20;;;;;;;55.80;27.80;;;;;;;17.48;67.90;102112.94;5024650;28;20076;-71
2021/06/07 07:59:45;;;;;;;49.67;26.10;;;;;;;17.67;67.58;102114.34;5026656;28;20462;-71
2021/06/07 08:02:11;;;;;;;45.83;24.20;;;;;;;17.69;68.59;102119.41;5025957;28;20109;-71
2021/06/07 08:04:37;;;;;;;48.60;26.15;;;;;;;17.83;67.49;102116.03;5027199;28;20108;-71
2021/06/07 08:07:03;;;;;;;51.17;26.48;;;;;;;17.81;66.83;102118.03;5025670;28;20752;-71
2021/06/07 08:09:31;;;;;;;47.55;26.83;;;;;;;17.69;67.49;102112.34;5026542;28;20037;-71
2021/06/07 08:11:57;;;;;;;55.65;29.92;;;;;;;17.59;67.34;102109.09;5025301;28;20044;-71
2021/06/07 08:14:23;;;;;;;45.65;25.05;;;;;;;17.90;67.16;102110.97;5026034;28;20037;-71
2021/06/07 08:16:48;;;;;;;50.08;25.77;;;;;;;18.50;66.19;102109.41;5025823;28;20033;-71
2021/06/07 08:19:14;;;;;;;49.45;27.50;;;;;;;18.60;64.84;102107.34;5018622;28;20481;-71
2021/06/07 08:21:40;;;;;;;54.65;28.15;;;;;;;18.52;65.12;102104.81;5021234;28;20039;-71
2021/06/07 08:24:06;;;;;;;39.45;22.95;;;;;;;18.50;65.00;102104.16;5025449;28;20120;-71
2021/06/07 08:26:31;;;;;;;40.83;22.42;;;;;;;18.68;64.80;102109.09;5025743;28;20033;-71
2021/06/07 08:28:56;;;;;;;33.97;20.45;;;;;;;19.14;63.78;102109.00;5026823;28;20120;-71
2021/06/07 08:31:22;;;;;;;29.15;17.23;;;;;;;19.59;61.80;102112.41;5026607;28;20037;-71
2021/06/07 08:33:47;;;;;;;31.98;20.63;;;;;;;20.03;60.98;102106.25;5025823;28;20114;-71
2021/06/07 08:36:13;;;;;;;29.38;19.80;;;;;;;20.16;61.58;102105.56;5023374;28;20529;-71
2021/06/07 08:38:41;;;;;;;25.48;16.33;;;;;;;20.12;61.28;102106.13;5027210;28;20039;-71
2021/06/07 08:41:07;;;;;;;21.88;16.13;;;;;;;20.67;59.16;102101.97;5026832;28;20712;-71
2021/06/07 08:43:32;;;;;;;23.83;16.27;;;;;;;20.84;57.58;102097.22;5023155;28;20037;-71
2021/06/07 08:45:58;;;;;;;22.80;15.98;;;;;;;20.84;58.61;102102.47;5025510;28;20496;-71
2021/06/07 08:48:23;;;;;;;24.35;18.20;;;;;;;20.66;58.75;102102.16;5023064;28;20049;-71
2021/06/07 08:50:49;;;;;;;29.63;16.65;;;;;;;20.15;59.39;102101.28;5024923;28;20048;-72
2021/06/07 08:53:15;;;;;;;17.35;13.52;;;;;;;20.16;60.81;102102.94;5042077;28;20051;-72
2021/06/07 08:55:40;;;;;;;16.42;13.43;;;;;;;20.54;59.04;102101.84;5025027;28;20033;-71
2021/06/07 08:58:06;;;;;;;24.00;16.95;;;;;;;20.64;57.22;102102.34;5024139;28;20033;-71
2021/06/07 09:00:38;;;;;;;24.23;15.73;;;;;;;20.85;58.11;102100.66;5021559;28;20442;-71
2021/06/07 09:03:14;;;;;;;21.80;16.10;;;;;;;21.25;56.94;102099.06;5025161;28;20160;-73
2021/06/07 09:05:41;;;;;;;22.33;15.23;;;;;;;21.00;56.05;102094.28;5041770;28;20038;-71
2021/06/07 09:08:10;;;;;;;17.05;13.15;;;;;;;20.77;57.60;102101.63;5024919;28;20034;-72
2021/06/07 09:10:39;;;;;;;18.38;12.75;;;;;;;20.68;58.79;102105.41;5026690;28;20473;-71
2021/06/07 09:13:07;;;;;;;15.10;11.05;;;;;;;20.58;57.68;102110.97;5025556;28;20052;-71
2021/06/07 09:15:40;;;;;;;14.75;10.98;;;;;;;20.38;58.99;102100.28;5039298;28;20037;-71
2021/06/07 09:18:07;;;;;;;;;;;;;;;20.45;58.87;102105.59;5025218;28;20041;-72
2021/06/07 09:20:34;;;;;;;15.23;10.52;;;;;;;20.27;59.78;102106.88;5041632;28;19966;-71
2021/06/07 09:23:13;;;;;;;14.43;11.00;;;;;;;20.15;59.19;102109.19;5024185;28;20064;-71
2021/06/07 09:25:40;;;;;;;13.38;9.48;;;;;;;20.83;58.06;102100.03;5020890;28;20037;-72
2021/06/07 09:28:08;;;;;;;15.20;10.30;;;;;;;21.37;55.62;102099.31;5023768;28;20060;-72
2021/06/07 09:30:44;;;;;;;11.75;9.23;;;;;;;22.34;55.80;102089.47;5025376;28;20044;-72
2021/06/07 09:33:34;;;;;;;10.50;8.48;;;;;;;22.68;54.21;102091.06;5041482;28;20029;-72
2021/06/07 09:36:10;;;;;;;15.82;9.50;;;;;;;22.82;53.01;102093.66;5026127;28;20029;-72
2021/06/07 09:38:52;;;;;;;18.52;10.05;;;;;;;22.07;52.60;102097.31;5023695;28;20033;-72
2021/06/07 09:41:18;;;;;;;20.93;14.00;;;;;;;22.49;52.30;102092.69;5023575;28;20072;-72
2021/06/07 09:43:53;;;;;;;21.83;11.57;;;;;;;22.04;52.73;102089.81;5025948;28;20068;-72
2021/06/07 09:46:30;;;;;;;13.00;10.88;;;;;;;22.23;53.46;102090.03;5040526;28;20605;-73
2021/06/07 09:49:16;;;;;;;14.40;9.80;;;;;;;22.01;53.16;102097.31;5020008;28;20398;-72
2021/06/07 09:51:53;;;;;;;12.50;9.43;;;;;;;22.13;53.23;102103.59;5025134;28;20033;-72
2021/06/07 09:54:18;;;;;;;13.25;10.10;;;;;;;21.85;53.36;102096.69;5025043;28;20512;-72
2021/06/07 09:56:57;;;;;;;11.18;8.70;;;;;;;22.11;54.18;102093.28;5024628;28;20033;-72
2021/06/07 09:59:23;;;;;;;12.98;7.97;;;;;;;22.50;53.63;102089.03;5022132;28;20029;-72
2021/06/07 10:01:48;;;;;;;13.80;8.93;;;;;;;22.12;52.65;102086.16;5039744;28;20798;-72
2021/06/07 10:04:15;;;;;;;13.73;9.38;;;;;;;22.06;52.11;102094.88;5023220;28;20294;-72
2021/06/07 10:06:41;;;;;;;13.05;9.13;;;;;;;21.85;53.07;102088.75;5024401;28;20072;-72
2021/06/07 10:09:08;;;;;;;13.20;8.05;;;;;;;21.80;52.43;102088.53;5022308;28;20030;-73
2021/06/07 10:11:42;;;;;;;11.15;7.57;;;;;;;21.51;54.61;102092.28;5013820;28;20073;-72
2021/06/07 10:14:22;;;;;;;12.38;8.65;;;;;;;21.36;53.76;102095.88;5022418;28;20041;-72
2021/06/07 10:17:01;;;;;;;9.77;7.38;;;;;;;21.47;54.39;102088.44;5039732;28;20072;-72
2021/06/07 10:19:48;;;;;;;10.52;7.85;;;;;;;21.52;55.40;102096.56;5035357;28;20120;-72
2021/06/07 10:22:14;;;;;;;10.20;6.97;;;;;;;21.44;55.29;102094.91;5023610;28;20124;-72
2021/06/07 10:24:40;;;;;;;11.63;7.13;;;;;;;21.60;55.06;102088.47;5021978;28;20066;-72
2021/06/07 10:27:07;;;;;;;15.73;8.40;;;;;;;21.47;55.30;102081.31;5023636;28;20045;-73
2021/06/07 10:29:41;;;;;;;13.90;8.88;;;;;;;21.36;55.26;102084.50;5022458;28;20049;-72
2021/06/07 10:32:12;;;;;;;10.25;7.22;;;;;;;21.32;55.52;102088.53;5023400;28;20029;-72
2021/06/07 10:34:45;;;;;;;13.13;7.93;;;;;;;21.42;53.68;102086.38;5023057;28;20036;-72
2021/06/07 10:37:11;;;;;;;11.75;8.52;;;;;;;21.47;53.75;102086.59;5021311;28;20045;-72
2021/06/07 10:39:36;;;;;;;9.98;7.95;;;;;;;21.31;53.54;102090.38;5036945;28;20023;-72
2021/06/07 10:42:02;;;;;;;12.85;9.45;;;;;;;21.12;54.16;102089.25;5024934;28;20553;-72
2021/06/07 10:44:43;;;;;;;9.77;7.35;;;;;;;21.06;54.64;102087.41;5034593;28;20034;-72
2021/06/07 10:47:13;;;;;;;11.65;8.35;;;;;;;21.22;54.14;102080.19;5038184;28;20025;-72
2021/06/07 10:49:46;;;;;;;9.40;7.50;;;;;;;20.99;55.81;102087.38;5036017;28;20049;-72
2021/06/07 10:52:13;;;;;;;;;;;;;;;20.82;53.91;102080.78;5024097;28;20828;-72
2021/06/07 10:54:41;;;;;;;10.02;6.65;;;;;;;20.96;54.48;102079.88;5026027;28;19917;-72
2021/06/07 10:57:21;;;;;;;6.45;5.68;;;;;;;20.95;54.57;102082.69;5038398;28;20533;-72
2021/06/07 10:59:49;;;;;;;10.20;7.15;;;;;;;20.93;55.11;102082.06;5038057;28;20124;-72
2021/06/07 11:02:17;;;;;;;7.18;6.05;;;;;;;21.08;52.87;102074.84;5023253;28;20042;-72
2021/06/07 11:04:42;;;;;;;8.55;6.00;;;;;;;20.78;53.80;102087.44;5017915;28;20203;-71
2021/06/07 11:07:13;;;;;;;8.32;5.47;;;;;;;20.81;55.82;102089.69;5038003;28;20507;-72
2021/06/07 11:10:16;;;;;;;10.18;6.38;;;;;;;20.85;54.36;102088.31;5022404;28;20033;-72
2021/06/07 11:12:42;;;;;;;9.07;6.03;;;;;;;20.85;54.62;102084.84;5019318;28;20490;-72